Aartselaar, Belgium
Current Conditions -  °F | °C
As of 12:50 AM on Monday 22 Dec 2014 (Local Time) from EBAW Reporting Station
Overcast Overcast  
Wind Chill: 41°   Ceiling: 1000
Heat Index: 48°   Visibility: 6mi
Dew Point: 43°   Wind: 20mph
Humidity: 82%   Direction: 230°SW
Pressure: 30.21"   Gusts: NA
Location:  51.13°N, 4.39°E
Report Text: EBAW 212350Z AUTO 23017KT 9999 BKN010/// OVC013/// 09/06 Q1023
Loading
Personal Weather Stations






























Interactive Weather Map New forecast layout! Learn more

10-Day Weather Forecast

Advertisements
Track Severe Weather on mobile